createdAt,value
2018-09-05T00:02:38.886Z,9.93
2018-09-05T00:05:43.909Z,8.73
2018-09-05T00:08:48.425Z,10.37
2018-09-05T00:11:53.536Z,10.80
2018-09-05T00:14:59.142Z,9.83
2018-09-05T00:18:03.813Z,9.97
2018-09-05T00:21:08.197Z,11.40
2018-09-05T00:24:13.064Z,11.43
2018-09-05T00:27:17.654Z,11.37
2018-09-05T00:30:23.373Z,12.13
2018-09-05T00:33:27.741Z,9.80
2018-09-05T00:36:33.088Z,10.70
2018-09-05T00:39:37.377Z,11.40
2018-09-05T00:42:42.296Z,11.33
2018-09-05T00:45:47.185Z,13.97
2018-09-05T00:48:52.249Z,13.27
2018-09-05T00:51:57.491Z,12.60
2018-09-05T00:55:03.283Z,14.00
2018-09-05T00:58:07.630Z,11.73
2018-09-05T01:01:12.088Z,12.80
2018-09-05T01:04:16.457Z,12.57
2018-09-05T01:07:24.807Z,14.87
2018-09-05T01:10:29.380Z,11.07
2018-09-05T01:13:33.904Z,11.17
2018-09-05T01:16:38.270Z,13.87
2018-09-05T01:19:42.820Z,12.27
2018-09-05T01:22:47.579Z,12.03
2018-09-05T01:25:51.956Z,14.80
2018-09-05T01:28:56.298Z,10.80
2018-09-05T01:32:01.052Z,12.07
2018-09-05T01:35:05.714Z,12.77
2018-09-05T01:38:10.112Z,14.17
2018-09-05T01:41:15.616Z,14.03
2018-09-05T01:44:20.266Z,14.73
2018-09-05T01:47:24.612Z,14.50
2018-09-05T01:50:34.385Z,16.47
2018-09-05T01:53:39.150Z,14.30
2018-09-05T01:56:43.545Z,15.87
2018-09-05T01:59:47.953Z,15.33
2018-09-05T02:02:52.460Z,16.70
2018-09-05T02:05:56.987Z,19.83
2018-09-05T02:09:01.450Z,16.87
2018-09-05T02:12:06.242Z,19.70
2018-09-05T02:15:10.912Z,17.50
2018-09-05T02:18:15.642Z,15.67
2018-09-05T02:21:20.509Z,16.80
2018-09-05T02:24:24.918Z,14.17
2018-09-05T02:27:29.372Z,14.47
2018-09-05T02:30:33.788Z,14.63
2018-09-05T02:33:38.213Z,14.43
2018-09-05T02:36:42.613Z,15.87
2018-09-05T02:39:47.052Z,14.77
2018-09-05T02:42:51.520Z,14.70
2018-09-05T02:45:55.978Z,15.23
2018-09-05T02:49:00.284Z,12.57
2018-09-05T02:52:04.637Z,12.90
2018-09-05T02:55:09.036Z,12.17
2018-09-05T02:58:13.393Z,12.63
2018-09-05T03:01:17.988Z,12.97
2018-09-05T03:04:22.292Z,11.20
2018-09-05T03:07:26.636Z,10.90
2018-09-05T03:10:30.933Z,10.60
2018-09-05T03:13:35.251Z,12.33
2018-09-05T03:16:39.516Z,16.53
2018-09-05T03:19:43.921Z,15.87
2018-09-05T03:22:48.232Z,13.33
2018-09-05T03:25:52.507Z,12.97
2018-09-05T03:28:56.833Z,13.83
2018-09-05T03:32:01.165Z,14.63
2018-09-05T03:35:05.516Z,14.73
2018-09-05T03:38:09.802Z,13.87
2018-09-05T03:41:14.158Z,14.83
2018-09-05T03:44:18.449Z,16.47
2018-09-05T03:47:22.799Z,15.20
2018-09-05T03:50:27.143Z,13.93
2018-09-05T03:53:31.517Z,13.13
2018-09-05T03:56:35.832Z,12.27
2018-09-05T03:59:40.154Z,13.80
2018-09-05T04:02:44.432Z,15.20
2018-09-05T04:05:48.776Z,20.47
2018-09-05T04:08:53.880Z,15.87
2018-09-05T04:11:58.292Z,16.00
2018-09-05T04:15:02.667Z,17.33
2018-09-05T04:18:06.987Z,19.50
2018-09-05T04:21:11.304Z,17.67
2018-09-05T04:24:15.629Z,18.27
2018-09-05T04:27:19.963Z,15.63
2018-09-05T04:30:24.279Z,18.30
2018-09-05T04:33:28.586Z,16.93
2018-09-05T04:36:32.878Z,15.77
2018-09-05T04:39:37.222Z,18.63
2018-09-05T04:42:41.559Z,18.17
2018-09-05T04:45:45.860Z,17.87
2018-09-05T04:48:50.199Z,15.97
2018-09-05T04:51:54.484Z,15.60
2018-09-05T04:54:58.836Z,15.00
2018-09-05T04:58:03.099Z,14.70
2018-09-05T05:01:07.450Z,14.50
2018-09-05T05:04:11.810Z,12.47
2018-09-05T05:07:16.187Z,14.10
2018-09-05T05:10:20.508Z,14.30
2018-09-05T05:13:24.847Z,13.27
2018-09-05T05:16:29.171Z,13.67
2018-09-05T05:19:33.448Z,10.70
2018-09-05T05:22:37.757Z,12.63
2018-09-05T05:25:42.122Z,18.33
2018-09-05T05:28:46.391Z,14.87
2018-09-05T05:31:50.781Z,15.43
2018-09-05T05:34:55.124Z,16.37
2018-09-05T05:37:59.532Z,15.33
2018-09-05T05:41:03.846Z,14.27
2018-09-05T05:44:08.165Z,16.80
2018-09-05T05:47:12.550Z,19.67
2018-09-05T05:50:16.823Z,16.97
2018-09-05T05:53:21.208Z,24.90
2018-09-05T05:56:25.527Z,23.63
2018-09-05T05:59:29.820Z,26.13
2018-09-05T06:02:34.137Z,27.43
2018-09-05T06:05:38.471Z,29.20
2018-09-05T06:08:42.799Z,48.27
2018-09-05T06:11:47.088Z,41.93
2018-09-05T06:14:51.447Z,44.83
2018-09-05T06:17:55.974Z,67.80
2018-09-05T06:21:00.298Z,37.97
2018-09-05T06:24:04.595Z,35.70
2018-09-05T06:27:08.900Z,36.47
2018-09-05T06:30:13.519Z,33.00
2018-09-05T06:33:17.865Z,33.53
2018-09-05T06:36:22.179Z,35.73
2018-09-05T06:39:26.481Z,37.63
2018-09-05T06:42:30.946Z,36.13
2018-09-05T06:45:35.378Z,32.73
2018-09-05T06:48:39.852Z,32.50
2018-09-05T06:51:44.149Z,35.33
2018-09-05T06:54:48.576Z,36.43
2018-09-05T06:57:53.096Z,38.63
2018-09-05T07:00:57.465Z,31.73
2018-09-05T07:04:01.853Z,32.40
2018-09-05T07:07:06.155Z,37.40
2018-09-05T07:10:10.627Z,44.73
2018-09-05T07:13:14.959Z,36.70
2018-09-05T07:16:19.367Z,37.50
2018-09-05T07:19:23.665Z,39.33
2018-09-05T07:22:27.957Z,34.53
2018-09-05T07:25:32.393Z,31.37
2018-09-05T07:28:36.729Z,34.40
2018-09-05T07:31:41.057Z,27.17
2018-09-05T07:34:45.622Z,24.17
2018-09-05T07:37:50.504Z,25.47
2018-09-05T07:40:54.918Z,22.03
2018-09-05T07:43:59.266Z,24.07
2018-09-05T07:47:03.572Z,22.67
2018-09-05T07:50:08.355Z,23.07
2018-09-05T07:53:12.740Z,17.83
2018-09-05T07:56:17.125Z,16.37
2018-09-05T07:59:21.524Z,19.10
2018-09-05T08:02:25.841Z,17.53
2018-09-05T08:05:30.224Z,15.23
2018-09-05T08:08:34.649Z,18.27
2018-09-05T08:11:39.952Z,18.33
2018-09-05T08:14:44.284Z,15.93
2018-09-05T08:17:48.622Z,16.50
2018-09-05T08:20:52.966Z,17.10
2018-09-05T08:23:57.281Z,16.20
2018-09-05T08:27:01.578Z,16.77
2018-09-05T08:30:06.014Z,12.60
2018-09-05T08:33:10.302Z,16.13
2018-09-05T08:36:14.768Z,15.60
2018-09-05T08:39:18.892Z,13.43
2018-09-05T08:42:23.295Z,14.80
2018-09-05T08:45:28.095Z,12.53
2018-09-05T08:48:31.941Z,16.07
2018-09-05T08:51:36.743Z,10.23
2018-09-05T08:54:41.032Z,11.23
2018-09-05T08:57:45.330Z,11.83
2018-09-05T09:00:49.670Z,10.80
2018-09-05T09:03:54.033Z,12.33
2018-09-05T09:06:58.453Z,12.47
2018-09-05T09:10:02.829Z,10.60
2018-09-05T09:13:07.145Z,9.53
2018-09-05T09:16:11.498Z,10.93
2018-09-05T09:19:15.781Z,7.60
2018-09-05T09:22:20.118Z,7.63
2018-09-05T09:25:24.440Z,8.07
2018-09-05T09:28:28.718Z,8.83
2018-09-05T09:31:33.476Z,7.50
2018-09-05T09:34:37.871Z,9.37
2018-09-05T09:37:42.483Z,8.77
2018-09-05T09:40:46.825Z,7.27
2018-09-05T09:43:51.108Z,8.10
2018-09-05T09:46:55.574Z,7.20
2018-09-05T09:49:59.921Z,7.67
2018-09-05T09:53:04.351Z,7.17
2018-09-05T09:56:08.772Z,7.33
2018-09-05T09:59:14.089Z,8.20
2018-09-05T10:02:23.549Z,8.10
2018-09-05T10:05:33.077Z,6.93
2018-09-05T10:08:42.779Z,6.97
2018-09-05T10:11:52.421Z,6.83
2018-09-05T10:15:01.823Z,6.27
2018-09-05T10:18:11.658Z,6.67
2018-09-05T10:21:16.377Z,6.17
2018-09-05T10:24:20.764Z,7.83
2018-09-05T10:27:25.993Z,6.17
2018-09-05T10:30:30.441Z,6.13
2018-09-05T10:33:35.252Z,6.37
2018-09-05T10:36:39.649Z,4.80
2018-09-05T10:39:44.294Z,6.20
2018-09-05T10:42:48.751Z,6.17
2018-09-05T10:45:53.053Z,6.07
2018-09-05T10:48:57.545Z,5.70
2018-09-05T10:52:04.875Z,6.17
2018-09-05T10:55:09.241Z,5.67
2018-09-05T10:58:13.698Z,7.17
2018-09-05T11:01:17.995Z,5.63
2018-09-05T11:04:22.406Z,5.47
2018-09-05T11:07:26.694Z,5.47
2018-09-05T11:10:31.093Z,5.50
2018-09-05T11:13:35.465Z,7.53
2018-09-05T11:16:40.267Z,5.70
2018-09-05T11:19:44.555Z,5.73
2018-09-05T11:22:49.106Z,7.57
2018-09-05T11:25:53.437Z,5.97
2018-09-05T11:28:58.601Z,6.17
2018-09-05T11:32:02.851Z,6.43
2018-09-05T11:35:07.320Z,6.10
2018-09-05T11:38:11.622Z,6.80
2018-09-05T11:41:16.109Z,6.17
2018-09-05T11:44:20.398Z,7.73
2018-09-05T11:47:24.731Z,6.67
2018-09-05T11:50:29.115Z,6.03
2018-09-05T11:53:33.433Z,6.40
2018-09-05T11:56:37.703Z,6.20
2018-09-05T11:59:42.009Z,8.43
2018-09-05T12:02:46.305Z,5.40
2018-09-05T12:05:50.630Z,7.30
2018-09-05T12:08:54.901Z,5.90
2018-09-05T12:11:59.253Z,6.17
2018-09-05T12:15:03.692Z,6.93
2018-09-05T12:18:08.392Z,5.93
2018-09-05T12:21:14.486Z,6.00
2018-09-05T12:24:19.394Z,9.23
2018-09-05T12:27:23.938Z,7.33
2018-09-05T12:30:29.718Z,6.50
2018-09-05T12:33:34.511Z,7.23
2018-09-05T12:36:38.910Z,6.40
2018-09-05T12:39:43.352Z,7.90
2018-09-05T12:42:49.727Z,6.10
2018-09-05T12:45:54.202Z,5.97
2018-09-05T12:48:58.734Z,6.63
2018-09-05T12:52:03.152Z,8.03
2018-09-05T12:55:07.619Z,5.13
2018-09-05T12:58:12.047Z,8.73
2018-09-05T13:01:16.735Z,6.27
2018-09-05T13:04:21.081Z,5.53
2018-09-05T13:07:25.515Z,6.07
2018-09-05T13:10:30.040Z,6.07
2018-09-05T13:13:34.476Z,7.07
2018-09-05T13:16:39.037Z,7.83
2018-09-05T13:19:43.502Z,4.80
2018-09-05T13:22:47.994Z,5.57
2018-09-05T13:25:52.867Z,6.60
2018-09-05T13:28:57.866Z,5.90
2018-09-05T13:32:02.533Z,4.60
2018-09-05T13:35:06.916Z,5.87
2018-09-05T13:38:12.485Z,5.77
2018-09-05T13:41:18.168Z,5.70
2018-09-05T13:44:23.467Z,6.80
2018-09-05T13:47:28.002Z,4.83
2018-09-05T13:50:33.101Z,7.53
2018-09-05T13:53:38.473Z,7.67
2018-09-05T13:56:43.029Z,6.37
2018-09-05T13:59:47.420Z,7.13
2018-09-05T14:02:51.778Z,5.87
2018-09-05T14:05:56.197Z,5.03
2018-09-05T14:09:00.581Z,4.57
2018-09-05T14:12:05.965Z,5.30
2018-09-05T14:15:10.357Z,6.07
2018-09-05T14:18:15.021Z,5.03
2018-09-05T14:21:19.422Z,4.90
2018-09-05T14:24:23.881Z,6.00
2018-09-05T14:27:28.265Z,4.90
2018-09-05T14:30:32.623Z,4.80
2018-09-05T14:33:36.990Z,4.90
2018-09-05T14:36:41.345Z,6.50
2018-09-05T14:39:45.677Z,4.20
2018-09-05T14:42:50.057Z,4.90
2018-09-05T14:45:54.380Z,5.93
2018-09-05T14:48:58.783Z,4.67
2018-09-05T14:52:03.179Z,4.60
2018-09-05T14:55:07.769Z,6.37
2018-09-05T14:58:12.135Z,5.40
2018-09-05T15:01:16.487Z,4.67
2018-09-05T15:04:20.773Z,4.70
2018-09-05T15:07:25.103Z,4.43
2018-09-05T15:10:29.442Z,5.43
2018-09-05T15:13:33.759Z,5.07
2018-09-05T15:16:38.455Z,5.80
2018-09-05T15:19:42.817Z,4.93
2018-09-05T15:22:47.229Z,4.77
2018-09-05T15:25:51.646Z,5.20
2018-09-05T15:28:55.872Z,6.60
2018-09-05T15:32:00.371Z,4.77
2018-09-05T15:35:04.842Z,7.30
2018-09-05T15:38:09.339Z,6.70
2018-09-05T15:41:13.860Z,3.93
2018-09-05T15:44:18.214Z,4.87
2018-09-05T15:47:22.621Z,4.13
2018-09-05T15:50:27.043Z,4.13
2018-09-05T15:53:31.412Z,4.13
2018-09-05T15:56:36.812Z,4.20
2018-09-05T15:59:41.252Z,4.50
2018-09-05T16:02:45.654Z,5.77
2018-09-05T16:05:50.233Z,9.63
2018-09-05T16:08:54.618Z,5.00
2018-09-05T16:11:59.142Z,5.53
2018-09-05T16:15:03.853Z,5.23
2018-09-05T16:18:08.232Z,4.00
2018-09-05T16:21:12.570Z,5.87
2018-09-05T16:24:16.993Z,4.27
2018-09-05T16:27:21.307Z,4.53
2018-09-05T16:30:27.121Z,4.77
2018-09-05T16:33:31.979Z,5.00
2018-09-05T16:36:37.118Z,4.43
2018-09-05T16:39:41.991Z,4.37
2018-09-05T16:42:46.391Z,4.30
2018-09-05T16:45:51.589Z,5.83
2018-09-05T16:48:57.186Z,4.60
2018-09-05T16:52:01.809Z,4.30
2018-09-05T16:55:06.700Z,4.77
2018-09-05T16:58:11.882Z,6.90
2018-09-05T17:01:16.264Z,6.97
2018-09-05T17:04:21.126Z,6.07
2018-09-05T17:07:26.320Z,4.90
2018-09-05T17:10:30.787Z,4.27
2018-09-05T17:13:36.080Z,5.10
2018-09-05T17:16:40.418Z,5.60
2018-09-05T17:19:45.747Z,7.33
2018-09-05T17:22:50.789Z,8.53
2018-09-05T17:25:55.594Z,5.20
2018-09-05T17:29:00.586Z,6.33
2018-09-05T17:32:05.613Z,5.63
2018-09-05T17:35:10.773Z,5.00
2018-09-05T17:38:15.860Z,6.80
2018-09-05T17:41:20.736Z,6.10
2018-09-05T17:44:25.150Z,6.17
2018-09-05T17:47:29.439Z,7.93
2018-09-05T17:50:34.813Z,5.73
2018-09-05T17:53:41.073Z,5.97
2018-09-05T17:56:46.103Z,8.40
2018-09-05T17:59:50.658Z,6.17
2018-09-05T18:02:55.833Z,6.67
2018-09-05T18:06:01.434Z,7.07
2018-09-05T18:09:08.980Z,7.80
2018-09-05T18:12:14.531Z,9.03
2018-09-05T18:15:19.512Z,12.57
2018-09-05T18:18:24.331Z,11.83
2018-09-05T18:21:28.641Z,8.87
2018-09-05T18:24:33.000Z,11.43
2018-09-05T18:27:37.533Z,10.30
2018-09-05T18:30:41.920Z,9.40
2018-09-05T18:33:46.305Z,9.23
2018-09-05T18:36:50.859Z,9.07
2018-09-05T18:39:55.300Z,9.07
2018-09-05T18:42:59.723Z,10.97
2018-09-05T18:46:04.176Z,10.47
2018-09-05T18:49:08.756Z,10.93
2018-09-05T18:52:13.167Z,10.97
2018-09-05T18:55:17.525Z,12.60
2018-09-05T18:58:21.975Z,10.60
2018-09-05T19:01:27.132Z,11.40
2018-09-05T19:04:31.610Z,10.80
2018-09-05T19:07:36.030Z,11.53
2018-09-05T19:10:40.563Z,13.37
2018-09-05T19:13:45.081Z,13.97
2018-09-05T19:16:50.691Z,12.97
2018-09-05T19:19:55.848Z,11.13
2018-09-05T19:23:00.337Z,12.73
2018-09-05T19:26:04.770Z,12.53
2018-09-05T19:29:09.204Z,13.50
2018-09-05T19:32:13.611Z,15.23
2018-09-05T19:35:17.992Z,13.63
2018-09-05T19:38:22.701Z,18.80
2018-09-05T19:41:27.168Z,14.47
2018-09-05T19:44:31.575Z,15.77
2018-09-05T19:47:36.137Z,15.27
2018-09-05T19:50:41.641Z,20.03
2018-09-05T19:53:47.024Z,15.90
2018-09-05T19:56:52.260Z,16.63
2018-09-05T19:59:58.248Z,17.43
2018-09-05T20:03:03.202Z,15.07
2018-09-05T20:06:07.676Z,14.00
2018-09-05T20:09:12.554Z,14.03
2018-09-05T20:12:16.974Z,15.03
2018-09-05T20:15:23.506Z,14.13
2018-09-05T20:18:28.084Z,15.57
2018-09-05T20:21:32.634Z,13.13
2018-09-05T20:24:37.136Z,14.87
2018-09-05T20:27:41.537Z,14.53
2018-09-05T20:30:45.973Z,14.07
2018-09-05T20:33:50.389Z,12.77
2018-09-05T20:36:54.735Z,13.60
2018-09-05T20:39:59.261Z,13.20
2018-09-05T20:43:03.823Z,16.97
2018-09-05T20:46:08.176Z,15.73
2018-09-05T20:49:12.573Z,16.57
2018-09-05T20:52:18.983Z,16.20
2018-09-05T20:55:23.816Z,16.40
2018-09-05T20:58:29.238Z,17.33
2018-09-05T21:01:33.557Z,17.40
2018-09-05T21:04:37.894Z,16.37
2018-09-05T21:07:42.361Z,15.23
2018-09-05T21:10:47.842Z,16.47
2018-09-05T21:13:52.337Z,17.43
2018-09-05T21:16:56.744Z,16.33
2018-09-05T21:20:01.105Z,13.93
2018-09-05T21:23:05.499Z,14.93
2018-09-05T21:26:10.757Z,14.93
2018-09-05T21:29:17.230Z,12.73
2018-09-05T21:32:22.813Z,16.57
2018-09-05T21:35:28.559Z,13.60
2018-09-05T21:38:33.943Z,14.87
2018-09-05T21:41:38.261Z,15.83
2018-09-05T21:44:43.704Z,15.17
2018-09-05T21:47:48.903Z,14.77
2018-09-05T21:50:53.245Z,15.20
2018-09-05T21:53:58.603Z,13.53
2018-09-05T21:57:02.904Z,11.07
2018-09-05T22:00:09.413Z,9.67
2018-09-05T22:03:13.731Z,9.30
2018-09-05T22:06:19.301Z,10.03
2018-09-05T22:09:24.613Z,9.87
2018-09-05T22:12:30.841Z,9.93
2018-09-05T22:15:39.392Z,9.77
2018-09-05T22:18:43.996Z,10.40
2018-09-05T22:21:49.311Z,10.33
2018-09-05T22:24:54.809Z,11.10
2018-09-05T22:27:59.371Z,11.60
2018-09-05T22:31:04.197Z,12.00
2018-09-05T22:34:09.639Z,11.37
2018-09-05T22:37:14.582Z,13.47
2018-09-05T22:40:18.842Z,12.07
2018-09-05T22:43:40.297Z,10.97
2018-09-05T22:47:02.266Z,10.47
2018-09-05T22:51:03.248Z,11.37
2018-09-05T22:56:34.942Z,14.90
2018-09-05T23:03:13.056Z,11.20
2018-09-05T23:06:34.386Z,9.50
2018-09-05T23:09:56.295Z,12.90
2018-09-05T23:13:17.788Z,10.47
2018-09-05T23:17:37.143Z,11.13
2018-09-05T23:20:55.899Z,13.60
2018-09-05T23:24:06.781Z,12.40
2018-09-05T23:27:12.011Z,12.67
2018-09-05T23:30:16.577Z,11.87
2018-09-05T23:33:21.671Z,11.00
2018-09-05T23:36:26.944Z,10.93
2018-09-05T23:39:31.494Z,10.67
2018-09-05T23:42:36.066Z,10.20
2018-09-05T23:45:41.033Z,9.53
2018-09-05T23:48:45.629Z,9.60
2018-09-05T23:51:50.034Z,10.63
2018-09-05T23:54:54.395Z,10.80
2018-09-05T23:57:58.785Z,9.50
